createdAt,value
2022-08-09T00:01:14.418Z,31.30
2022-08-09T00:04:37.002Z,31.30
2022-08-09T00:08:00.008Z,31.10
2022-08-09T00:11:25.027Z,31.40
2022-08-09T00:14:48.715Z,30.70
2022-08-09T00:18:14.890Z,30.80
2022-08-09T00:21:36.102Z,30.70
2022-08-09T00:24:57.400Z,30.90
2022-08-09T00:28:17.933Z,31.10
2022-08-09T00:31:59.387Z,30.70
2022-08-09T00:35:19.776Z,30.90
2022-08-09T00:38:40.523Z,31.30
2022-08-09T00:44:09.986Z,31.10
2022-08-09T00:45:50.439Z,31.20
2022-08-09T00:49:14.238Z,30.90
2022-08-09T00:52:38.022Z,31.50
2022-08-09T00:56:04.643Z,30.90
2022-08-09T00:59:40.530Z,31.50
2022-08-09T01:03:20.019Z,31.60
2022-08-09T01:06:54.772Z,31.30
2022-08-09T01:10:37.511Z,30.70
2022-08-09T01:14:04.619Z,31.00
2022-08-09T01:17:37.826Z,30.80
2022-08-09T01:21:45.159Z,31.30
2022-08-09T01:25:25.537Z,31.30
2022-08-09T01:28:53.809Z,31.00
2022-08-09T01:32:31.281Z,31.00
2022-08-09T01:36:05.762Z,31.90
2022-08-09T01:39:27.420Z,31.60
2022-08-09T01:42:49.927Z,31.70
2022-08-09T01:46:18.400Z,32.30
2022-08-09T01:49:48.775Z,32.50
2022-08-09T01:53:19.957Z,32.40
2022-08-09T01:56:47.221Z,31.80
2022-08-09T02:00:34.570Z,33.00
2022-08-09T02:03:58.034Z,32.50
2022-08-09T02:08:38.590Z,32.30
2022-08-09T02:11:16.706Z,32.10
2022-08-09T02:14:40.392Z,32.10
2022-08-09T02:18:10.790Z,32.90
2022-08-09T02:21:39.458Z,32.40
2022-08-09T02:25:07.299Z,32.40
2022-08-09T02:28:35.666Z,32.50
2022-08-09T02:32:05.278Z,32.20
2022-08-09T02:36:01.152Z,32.40
2022-08-09T02:39:14.442Z,32.40
2022-08-09T02:42:43.269Z,32.50
2022-08-09T02:46:08.764Z,32.70
2022-08-09T02:49:38.964Z,32.80
2022-08-09T02:53:06.524Z,32.90
2022-08-09T02:56:28.080Z,32.80
2022-08-09T03:00:21.116Z,32.80
2022-08-09T03:04:05.786Z,33.00
2022-08-09T03:07:14.354Z,33.20
2022-08-09T03:10:36.400Z,33.20
2022-08-09T03:14:01.337Z,33.30
2022-08-09T03:17:27.227Z,33.80
2022-08-09T03:20:48.561Z,33.60
2022-08-09T03:24:10.375Z,34.10
2022-08-09T03:27:37.228Z,34.20
2022-08-09T03:31:10.502Z,33.80
2022-08-09T03:34:42.151Z,33.80
2022-08-09T03:38:08.959Z,33.40
2022-08-09T03:41:49.011Z,33.30
2022-08-09T03:46:03.014Z,33.50
2022-08-09T03:49:09.640Z,33.60
2022-08-09T03:52:31.754Z,33.60
2022-08-09T03:55:52.662Z,33.70
2022-08-09T03:59:20.859Z,33.60
2022-08-09T04:02:52.675Z,33.70
2022-08-09T04:06:14.017Z,33.90
2022-08-09T04:09:42.102Z,34.70
2022-08-09T04:13:11.505Z,34.20
2022-08-09T04:16:31.819Z,34.20
2022-08-09T04:19:56.230Z,34.60
2022-08-09T04:23:17.869Z,35.20
2022-08-09T04:26:43.710Z,36.50
2022-08-09T04:30:04.464Z,37.40
2022-08-09T04:33:28.822Z,38.20
2022-08-09T04:36:50.328Z,38.00
2022-08-09T04:40:11.662Z,38.30
2022-08-09T04:43:53.882Z,38.50
2022-08-09T04:47:20.389Z,38.50
2022-08-09T04:50:42.554Z,39.00
2022-08-09T04:54:03.179Z,38.90
2022-08-09T04:57:25.108Z,39.20
2022-08-09T05:00:45.670Z,39.60
2022-08-09T05:04:06.564Z,39.70
2022-08-09T05:07:29.363Z,39.90
2022-08-09T05:10:52.610Z,40.00
2022-08-09T05:14:14.588Z,40.10
2022-08-09T05:18:37.735Z,40.60
2022-08-09T05:21:23.298Z,42.10
2022-08-09T05:24:45.110Z,42.20
2022-08-09T05:28:08.821Z,41.90
2022-08-09T05:31:44.417Z,42.00
2022-08-09T05:35:08.214Z,42.10
2022-08-09T05:38:30.715Z,41.70
2022-08-09T05:41:51.659Z,41.90
2022-08-09T05:45:14.229Z,42.20
2022-08-09T05:48:35.264Z,41.50
2022-08-09T05:51:58.159Z,41.30
2022-08-09T05:55:20.513Z,40.90
2022-08-09T05:58:41.711Z,40.50
2022-08-09T06:02:02.135Z,40.10
2022-08-09T06:05:50.216Z,39.80
2022-08-09T06:09:03.321Z,40.20
2022-08-09T06:12:31.141Z,39.60
2022-08-09T06:15:52.800Z,39.70
2022-08-09T06:19:14.753Z,39.40
2022-08-09T06:22:35.696Z,38.80
2022-08-09T06:25:56.960Z,38.90
2022-08-09T06:29:17.397Z,39.30
2022-08-09T06:32:59.157Z,39.10
2022-08-09T06:36:20.390Z,39.10
2022-08-09T06:39:57.910Z,39.20
2022-08-09T06:43:21.194Z,39.10
2022-08-09T06:46:41.953Z,39.00
2022-08-09T06:50:13.756Z,38.90
2022-08-09T06:53:38.426Z,38.90
2022-08-09T06:56:58.999Z,38.40
2022-08-09T07:00:52.717Z,38.30
2022-08-09T07:04:03.859Z,37.90
2022-08-09T07:08:00.247Z,38.30
2022-08-09T07:11:06.597Z,38.50
2022-08-09T07:14:27.483Z,38.10
2022-08-09T07:17:52.558Z,38.30
2022-08-09T07:21:17.343Z,38.30
2022-08-09T07:24:40.524Z,38.20
2022-08-09T07:28:04.684Z,38.80
2022-08-09T07:31:25.081Z,39.20
2022-08-09T07:34:45.280Z,39.90
2022-08-09T07:38:07.108Z,40.50
2022-08-09T07:41:27.442Z,41.00
2022-08-09T07:44:56.249Z,41.60
2022-08-09T07:48:28.878Z,41.90
2022-08-09T07:52:06.230Z,40.60
2022-08-09T07:55:41.358Z,40.30
2022-08-09T07:59:14.063Z,39.70
2022-08-09T08:02:47.811Z,39.00
2022-08-09T08:06:08.384Z,38.60
2022-08-09T08:09:44.333Z,38.60
2022-08-09T08:13:12.183Z,38.80
2022-08-09T08:16:35.331Z,38.00
2022-08-09T08:20:00.269Z,38.40
2022-08-09T08:23:20.821Z,38.90
2022-08-09T08:26:56.036Z,38.70
2022-08-09T08:30:20.058Z,38.50
2022-08-09T08:33:53.913Z,38.30
2022-08-09T08:37:17.782Z,38.60
2022-08-09T08:40:38.628Z,38.90
2022-08-09T08:44:02.737Z,39.60
2022-08-09T08:47:27.553Z,39.90
2022-08-09T08:50:52.039Z,40.30
2022-08-09T08:54:20.178Z,40.60
2022-08-09T08:57:41.569Z,40.80
2022-08-09T09:01:09.072Z,40.70
2022-08-09T09:04:48.111Z,40.80
2022-08-09T09:08:30.065Z,40.90
2022-08-09T09:11:52.460Z,41.00
2022-08-09T09:15:12.872Z,41.40
2022-08-09T09:19:10.842Z,41.50
2022-08-09T09:22:51.665Z,41.50
2022-08-09T09:26:13.737Z,41.70
2022-08-09T09:30:09.340Z,42.30
2022-08-09T09:33:17.870Z,42.20
2022-08-09T09:36:51.298Z,41.60
2022-08-09T09:40:14.757Z,41.10
2022-08-09T09:44:10.276Z,41.20
2022-08-09T09:47:21.387Z,40.20
2022-08-09T09:50:49.792Z,41.20
2022-08-09T09:54:21.207Z,41.00
2022-08-09T09:58:03.710Z,41.70
2022-08-09T10:01:30.271Z,40.60
2022-08-09T10:05:09.756Z,40.60
2022-08-09T10:08:29.935Z,40.10
2022-08-09T10:12:11.328Z,40.10
2022-08-09T10:16:08.802Z,41.10
2022-08-09T10:19:37.696Z,41.60
2022-08-09T10:23:00.975Z,41.90
2022-08-09T10:26:24.683Z,42.30
2022-08-09T10:30:43.580Z,42.60
2022-08-09T10:33:29.704Z,42.30
2022-08-09T10:37:09.790Z,41.40
2022-08-09T10:40:40.982Z,41.50
2022-08-09T10:44:05.009Z,41.30
2022-08-09T10:48:16.431Z,41.70
2022-08-09T10:51:29.698Z,41.90
2022-08-09T10:55:22.775Z,42.50
2022-08-09T10:58:43.972Z,42.80
2022-08-09T11:03:13.759Z,42.70
2022-08-09T11:06:20.809Z,42.30
2022-08-09T11:09:48.234Z,42.70
2022-08-09T11:13:50.445Z,43.10
2022-08-09T11:16:58.001Z,43.10
2022-08-09T11:20:37.158Z,43.50
2022-08-09T11:24:02.351Z,42.50
2022-08-09T11:28:03.943Z,43.30
2022-08-09T11:31:49.118Z,42.90
2022-08-09T11:35:49.480Z,43.50
2022-08-09T11:39:11.804Z,43.40
2022-08-09T11:42:39.511Z,43.70
2022-08-09T11:46:01.872Z,43.70
2022-08-09T11:50:55.587Z,44.00
2022-08-09T11:53:59.282Z,43.60
2022-08-09T11:57:47.443Z,44.10
2022-08-09T12:01:37.646Z,43.50
2022-08-09T12:05:13.228Z,43.80
2022-08-09T12:08:44.147Z,44.10
2022-08-09T12:12:06.024Z,43.80
2022-08-09T12:15:50.404Z,44.20
2022-08-09T12:19:13.081Z,43.90
2022-08-09T12:22:34.066Z,44.50
2022-08-09T12:25:55.362Z,44.50
2022-08-09T12:29:32.979Z,44.40
2022-08-09T12:33:03.294Z,44.60
2022-08-09T12:36:31.387Z,44.10
2022-08-09T12:40:08.276Z,43.90
2022-08-09T12:44:05.879Z,43.90
2022-08-09T12:47:11.343Z,43.50
2022-08-09T12:50:35.584Z,43.60
2022-08-09T12:54:08.289Z,43.70
2022-08-09T12:57:46.247Z,43.20
2022-08-09T13:01:26.659Z,43.40
2022-08-09T13:05:02.478Z,43.80
2022-08-09T13:08:40.582Z,43.70
2022-08-09T13:12:03.418Z,43.20
2022-08-09T13:15:24.061Z,41.70
2022-08-09T13:18:53.991Z,41.60
2022-08-09T13:22:35.317Z,41.30
2022-08-09T13:26:01.274Z,41.10
2022-08-09T13:29:41.980Z,41.30
2022-08-09T13:33:04.670Z,40.10
2022-08-09T13:36:40.510Z,40.50
2022-08-09T13:41:52.158Z,40.70
2022-08-09T13:43:44.087Z,41.50
2022-08-09T13:47:29.520Z,41.90
2022-08-09T13:50:51.577Z,42.20
2022-08-09T13:54:13.497Z,42.10
2022-08-09T13:57:40.528Z,42.40
2022-08-09T14:01:01.432Z,42.60
2022-08-09T14:04:23.741Z,42.50
2022-08-09T14:07:44.535Z,42.40
2022-08-09T14:11:04.555Z,42.70
2022-08-09T14:14:37.586Z,42.80
2022-08-09T14:18:19.097Z,42.80
2022-08-09T14:21:40.697Z,42.80
2022-08-09T14:25:01.183Z,42.90
2022-08-09T14:28:21.665Z,43.00
2022-08-09T14:31:51.810Z,43.10
2022-08-09T14:35:12.489Z,42.90
2022-08-09T14:38:33.946Z,42.90
2022-08-09T14:41:55.457Z,42.90
2022-08-09T14:46:54.807Z,43.00
2022-08-09T14:48:56.577Z,43.00
2022-08-09T14:52:17.544Z,42.80
2022-08-09T14:55:38.002Z,42.80
2022-08-09T14:59:02.955Z,42.50
2022-08-09T15:02:23.107Z,42.60
2022-08-09T15:05:50.258Z,42.30
2022-08-09T15:10:03.841Z,42.60
2022-08-09T15:13:03.233Z,42.30
2022-08-09T15:16:23.924Z,42.30
2022-08-09T15:19:58.944Z,42.20
2022-08-09T15:24:00.798Z,42.80
2022-08-09T15:27:00.877Z,42.90
2022-08-09T15:30:55.355Z,42.60
2022-08-09T15:34:31.463Z,39.40
2022-08-09T15:37:57.133Z,39.80
2022-08-09T15:41:22.406Z,38.90
2022-08-09T15:44:42.920Z,39.90
2022-08-09T15:48:27.891Z,40.40
2022-08-09T15:52:03.194Z,39.90
2022-08-09T15:55:25.365Z,40.70
2022-08-09T15:58:46.450Z,41.30
2022-08-09T16:02:06.897Z,41.30
2022-08-09T16:05:47.273Z,41.50
2022-08-09T16:09:09.576Z,41.70
2022-08-09T16:12:31.048Z,41.90
2022-08-09T16:16:11.574Z,42.00
2022-08-09T16:19:36.880Z,42.10
2022-08-09T16:23:10.183Z,42.40
2022-08-09T16:26:35.316Z,42.20
2022-08-09T16:30:01.064Z,42.70
2022-08-09T16:33:23.230Z,42.60
2022-08-09T16:36:44.377Z,43.40
2022-08-09T16:40:08.017Z,42.80
2022-08-09T16:43:28.878Z,43.10
2022-08-09T16:46:55.214Z,43.10
2022-08-09T16:50:28.687Z,43.20
2022-08-09T16:54:16.428Z,43.10
2022-08-09T16:58:09.372Z,43.40
2022-08-09T17:01:12.001Z,43.10
2022-08-09T17:04:32.266Z,43.20
2022-08-09T17:08:46.511Z,43.20
2022-08-09T17:11:40.363Z,43.50
2022-08-09T17:15:01.966Z,43.80
2022-08-09T17:18:42.561Z,43.80
2022-08-09T17:22:05.474Z,44.10
2022-08-09T17:25:30.397Z,44.10
2022-08-09T17:28:51.057Z,44.20
2022-08-09T17:32:11.486Z,44.50
2022-08-09T17:35:40.908Z,44.40
2022-08-09T17:39:02.009Z,44.60
2022-08-09T17:42:40.887Z,44.60
2022-08-09T17:46:06.638Z,44.70
2022-08-09T17:49:28.039Z,44.60
2022-08-09T17:52:51.626Z,44.10
2022-08-09T17:56:12.262Z,44.60
2022-08-09T17:59:38.260Z,44.70
2022-08-09T18:02:59.247Z,44.70
2022-08-09T18:06:30.742Z,45.00
2022-08-09T18:10:04.577Z,44.70
2022-08-09T18:13:38.845Z,44.80
2022-08-09T18:17:06.388Z,44.90
2022-08-09T18:20:54.436Z,45.00
2022-08-09T18:24:14.570Z,44.80
2022-08-09T18:28:02.003Z,44.00
2022-08-09T18:31:25.024Z,44.50
2022-08-09T18:34:52.466Z,44.90
2022-08-09T18:38:13.029Z,45.10
2022-08-09T18:41:35.044Z,45.00
2022-08-09T18:44:55.621Z,45.10
2022-08-09T18:48:17.562Z,45.00
2022-08-09T18:51:55.603Z,45.00
2022-08-09T18:55:19.418Z,44.90
2022-08-09T18:58:58.250Z,45.00
2022-08-09T19:02:30.619Z,45.10
2022-08-09T19:06:03.212Z,45.10
2022-08-09T19:10:12.946Z,44.90
2022-08-09T19:13:18.454Z,44.90
2022-08-09T19:16:49.923Z,44.90
2022-08-09T19:20:11.481Z,45.00
2022-08-09T19:24:32.522Z,44.30
2022-08-09T19:27:12.588Z,44.20
2022-08-09T19:30:34.301Z,44.00
2022-08-09T19:33:55.891Z,43.90
2022-08-09T19:37:17.111Z,43.80
2022-08-09T19:40:37.490Z,43.90
2022-08-09T19:44:01.474Z,43.90
2022-08-09T19:47:27.121Z,43.80
2022-08-09T19:50:54.174Z,44.00
2022-08-09T19:54:14.944Z,44.10
2022-08-09T19:57:35.537Z,44.10
2022-08-09T20:00:56.529Z,44.50
2022-08-09T20:04:29.891Z,44.60
2022-08-09T20:08:00.609Z,44.60
2022-08-09T20:11:27.128Z,44.80
2022-08-09T20:14:54.418Z,44.90
2022-08-09T20:18:14.806Z,44.60
2022-08-09T20:21:40.634Z,45.00
2022-08-09T20:25:22.713Z,45.20
2022-08-09T20:28:48.709Z,45.30
2022-08-09T20:32:29.362Z,45.50
2022-08-09T20:35:52.541Z,45.60
2022-08-09T20:39:28.432Z,45.60
2022-08-09T20:43:00.298Z,45.70
2022-08-09T20:46:43.233Z,46.00
2022-08-09T20:50:14.730Z,46.00
2022-08-09T20:53:50.034Z,46.10
2022-08-09T20:57:10.525Z,46.10
2022-08-09T21:00:32.250Z,46.10
2022-08-09T21:04:35.632Z,46.30
2022-08-09T21:07:40.688Z,46.40
2022-08-09T21:11:06.334Z,46.40
2022-08-09T21:14:30.922Z,46.40
2022-08-09T21:18:22.111Z,46.70
2022-08-09T21:21:52.901Z,46.70
2022-08-09T21:25:37.938Z,46.70
2022-08-09T21:28:58.476Z,46.80
2022-08-09T21:32:20.460Z,46.90
2022-08-09T21:35:53.815Z,47.00
2022-08-09T21:39:21.767Z,47.20
2022-08-09T21:42:47.772Z,47.20
2022-08-09T21:46:14.655Z,47.20
2022-08-09T21:49:39.826Z,47.30
2022-08-09T21:53:03.894Z,47.30
2022-08-09T21:56:43.268Z,47.30
2022-08-09T22:00:10.443Z,47.40
2022-08-09T22:03:33.291Z,47.40
2022-08-09T22:07:02.140Z,47.50
2022-08-09T22:10:25.286Z,47.60
2022-08-09T22:13:47.426Z,47.50
2022-08-09T22:17:10.646Z,47.60
2022-08-09T22:20:32.311Z,47.50
2022-08-09T22:24:00.127Z,47.80
2022-08-09T22:27:22.271Z,47.70
2022-08-09T22:30:48.776Z,47.60
2022-08-09T22:34:14.964Z,47.70
2022-08-09T22:37:40.339Z,47.40
2022-08-09T22:41:02.216Z,47.70
2022-08-09T22:44:22.522Z,47.60
2022-08-09T22:48:14.810Z,47.80
2022-08-09T22:51:23.786Z,47.80
2022-08-09T22:54:46.897Z,47.60
2022-08-09T22:58:07.782Z,47.80
2022-08-09T23:01:29.354Z,47.80
2022-08-09T23:04:53.854Z,47.80
2022-08-09T23:08:33.992Z,47.80
2022-08-09T23:11:55.408Z,47.70
2022-08-09T23:15:15.650Z,47.80
2022-08-09T23:18:35.950Z,47.50
2022-08-09T23:21:56.484Z,47.60
2022-08-09T23:25:16.960Z,47.50
2022-08-09T23:28:37.452Z,47.50
2022-08-09T23:31:57.724Z,47.40
2022-08-09T23:35:18.138Z,47.30
2022-08-09T23:38:48.972Z,47.40
2022-08-09T23:42:09.405Z,47.30
2022-08-09T23:45:36.893Z,47.40
2022-08-09T23:49:00.121Z,47.50
2022-08-09T23:52:20.500Z,47.50
2022-08-09T23:55:49.476Z,47.50
2022-08-09T23:59:10.209Z,47.60
